Cote D IVoirian Star — A8SL4 — position and weather

sailwx.info

Track history (hours):
 
Tides and Currents Weather Stations Pressure Air Temp Water Temp Dewpoint Dewpoint Depression Visibility Wind Speed Wind Dir Waves Ship Positions

Cote D IVoirian Star

Last reported at 2017-Apr-30 08:23 UTC. Time now 2017-Apr-30 08:57 UTC.
Position N 14°38' W 017°33'.

Length 185 m; draft 8.4 m.

Type: Cargo ship. MMSI: 636014241.

Date/timePositionNaut miles runAvg speedWind from/ knotsBaromVisibWave heightAir tempDewpointWater temp
2017-Apr-30 08:23N 14°38' W 017°33'718.3
2017-Apr-30 08:01N 14°36' W 017°27'510.5
2017-Apr-30 07:30N 14°40' W 017°23'3 5.3
2017-Apr-30 07:00N 14°41' W 017°26'0 0.3
2017-Apr-30 06:30N 14°41' W 017°26'0 0.0
2017-Apr-30 06:00N 14°41' W 017°26'0 0.0
2017-Apr-30 05:30N 14°41' W 017°26'0 0.0
2017-Apr-30 05:00N 14°41' W 017°26'0 0.0
2017-Apr-30 04:24N 14°41' W 017°26'0 0.0
2017-Apr-30 04:01N 14°41' W 017°26'0 0.0
2017-Apr-30 03:31N 14°41' W 017°26'0 0.0
2017-Apr-30 03:00N 14°41' W 017°26'0 0.0
2017-Apr-30 02:30N 14°41' W 017°26'0 0.0
2017-Apr-30 02:00N 14°41' W 017°26'0 0.0
2017-Apr-30 01:30N 14°41' W 017°26'0 0.0
2017-Apr-30 01:00N 14°41' W 017°26'0 0.0
2017-Apr-30 00:30N 14°41' W 017°26'0 0.0
2017-Apr-30 00:00N 14°41' W 017°26'0 0.0
2017-Apr-29 23:30N 14°41' W 017°26'3 5.0
2017-Apr-29 23:00N 14°41' W 017°23'5 9.3
2017-Apr-29 22:30N 14°36' W 017°23'34317.3
2017-Apr-29 02:42N 09°04' W 015°54'1218.5
2017-Apr-29 02:04N 08°57' W 015°45'73317.3
2017-Apr-27 07:34N 05°11' W 004°01'313.3
2017-Apr-27 07:19N 05°14' W 003°59'2 6.7
2017-Apr-27 06:59N 05°16' W 004°01'3 6.7
2017-Apr-27 06:30N 05°19' W 004°01'0 0.1
2017-Apr-27 05:53N 05°19' W 004°01'0 0.0
2017-Apr-27 05:20N 05°19' W 004°01'0 0.0
2017-Apr-27 05:00N 05°19' W 004°01'0 0.0
2017-Apr-27 04:19N 05°19' W 004°01'0 0.0
2017-Apr-27 04:00N 05°19' W 004°01'0 0.0
2017-Apr-27 03:31N 05°19' W 004°01'0 0.0
2017-Apr-27 02:56N 05°19' W 004°01'0 0.0
2017-Apr-27 02:11N 05°19' W 004°01'0 0.0
2017-Apr-27 01:55N 05°19' W 004°01'0 0.0
2017-Apr-27 01:23N 05°19' W 004°01'0 0.0
2017-Apr-27 00:49N 05°19' W 004°01'0 0.0
2017-Apr-27 00:30N 05°19' W 004°01'0 0.0
2017-Apr-26 23:47N 05°19' W 004°01'0 0.0
2017-Apr-26 23:22N 05°19' W 004°01'0 0.0
2017-Apr-26 22:58N 05°19' W 004°01'0 0.0
2017-Apr-26 22:28N 05°19' W 004°01'0 0.0
2017-Apr-26 21:59N 05°19' W 004°01'0 0.0
2017-Apr-26 21:30N 05°19' W 004°01'0 0.0
2017-Apr-26 20:44N 05°19' W 004°01'0 0.0
2017-Apr-26 20:28N 05°19' W 004°01'0 0.0
2017-Apr-26 19:59N 05°19' W 004°01'0 0.0
2017-Apr-26 18:45N 05°19' W 004°01'0 0.0
2017-Apr-26 18:16N 05°19' W 004°01'0 0.0
2017-Apr-26 16:19N 05°19' W 004°01'0 0.0
2017-Apr-26 15:53N 05°19' W 004°01'0 0.0
2017-Apr-26 14:56N 05°19' W 004°01'0 0.0
2017-Apr-26 12:58N 05°19' W 004°01'0 0.0
2017-Apr-26 12:19N 05°19' W 004°01'0 0.0
2017-Apr-26 11:57N 05°19' W 004°01'0 0.0
2017-Apr-26 11:19N 05°19' W 004°01'0 0.0
2017-Apr-26 11:00N 05°19' W 004°01'0 0.0
2017-Apr-26 10:08N 05°19' W 004°01'0 0.0
2017-Apr-26 09:53N 05°19' W 004°01'0 0.0
2017-Apr-26 09:29N 05°19' W 004°01'0 0.0
2017-Apr-26 08:58N 05°19' W 004°01'1 0.9
2017-Apr-26 08:11N 05°18' W 004°02'1 5.5
2017-Apr-26 07:59N 05°17' W 004°01'5 4.9
2017-Apr-26 07:01N 05°13' W 003°59'  
Track history (hours):
 
Tides and Currents Weather Stations Pressure Air Temp Water Temp Dewpoint Dewpoint Depression Visibility Wind Speed Wind Dir Waves Ship Positions

Cote D IVoirian Star

Last reported at 2017-Apr-30 08:23 UTC. Time now 2017-Apr-30 08:57 UTC.
Position N 14°38' W 017°33'.

Length 185 m; draft 8.4 m.

Type: Cargo ship. MMSI: 636014241.

Date/timePositionNaut miles runAvg speedWind from/ knotsBaromVisibWave heightAir tempDewpointWater temp
2017-Apr-30 08:23N 14°38' W 017°33'718.3
2017-Apr-30 08:01N 14°36' W 017°27'510.5
2017-Apr-30 07:30N 14°40' W 017°23'3 5.3
2017-Apr-30 07:00N 14°41' W 017°26'0 0.3
2017-Apr-30 06:30N 14°41' W 017°26'0 0.0
2017-Apr-30 06:00N 14°41' W 017°26'0 0.0
2017-Apr-30 05:30N 14°41' W 017°26'0 0.0
2017-Apr-30 05:00N 14°41' W 017°26'0 0.0
2017-Apr-30 04:24N 14°41' W 017°26'0 0.0
2017-Apr-30 04:01N 14°41' W 017°26'0 0.0
2017-Apr-30 03:31N 14°41' W 017°26'0 0.0
2017-Apr-30 03:00N 14°41' W 017°26'0 0.0
2017-Apr-30 02:30N 14°41' W 017°26'0 0.0
2017-Apr-30 02:00N 14°41' W 017°26'0 0.0
2017-Apr-30 01:30N 14°41' W 017°26'0 0.0
2017-Apr-30 01:00N 14°41' W 017°26'0 0.0
2017-Apr-30 00:30N 14°41' W 017°26'0 0.0
2017-Apr-30 00:00N 14°41' W 017°26'0 0.0
2017-Apr-29 23:30N 14°41' W 017°26'3 5.0
2017-Apr-29 23:00N 14°41' W 017°23'5 9.3
2017-Apr-29 22:30N 14°36' W 017°23'34317.3
2017-Apr-29 02:42N 09°04' W 015°54'1218.5
2017-Apr-29 02:04N 08°57' W 015°45'73317.3
2017-Apr-27 07:34N 05°11' W 004°01'313.3
2017-Apr-27 07:19N 05°14' W 003°59'2 6.7
2017-Apr-27 06:59N 05°16' W 004°01'3 6.7
2017-Apr-27 06:30N 05°19' W 004°01'0 0.1
2017-Apr-27 05:53N 05°19' W 004°01'0 0.0
2017-Apr-27 05:20N 05°19' W 004°01'0 0.0
2017-Apr-27 05:00N 05°19' W 004°01'0 0.0
2017-Apr-27 04:19N 05°19' W 004°01'0 0.0
2017-Apr-27 04:00N 05°19' W 004°01'0 0.0
2017-Apr-27 03:31N 05°19' W 004°01'0 0.0
2017-Apr-27 02:56N 05°19' W 004°01'0 0.0
2017-Apr-27 02:11N 05°19' W 004°01'0 0.0
2017-Apr-27 01:55N 05°19' W 004°01'0 0.0
2017-Apr-27 01:23N 05°19' W 004°01'0 0.0
2017-Apr-27 00:49N 05°19' W 004°01'0 0.0
2017-Apr-27 00:30N 05°19' W 004°01'0 0.0
2017-Apr-26 23:47N 05°19' W 004°01'0 0.0
2017-Apr-26 23:22N 05°19' W 004°01'0 0.0
2017-Apr-26 22:58N 05°19' W 004°01'0 0.0
2017-Apr-26 22:28N 05°19' W 004°01'0 0.0
2017-Apr-26 21:59N 05°19' W 004°01'0 0.0
2017-Apr-26 21:30N 05°19' W 004°01'0 0.0
2017-Apr-26 20:44N 05°19' W 004°01'0 0.0
2017-Apr-26 20:28N 05°19' W 004°01'0 0.0
2017-Apr-26 19:59N 05°19' W 004°01'0 0.0
2017-Apr-26 18:45N 05°19' W 004°01'0 0.0
2017-Apr-26 18:16N 05°19' W 004°01'0 0.0
2017-Apr-26 16:19N 05°19' W 004°01'0 0.0
2017-Apr-26 15:53N 05°19' W 004°01'0 0.0
2017-Apr-26 14:56N 05°19' W 004°01'0 0.0
2017-Apr-26 12:58N 05°19' W 004°01'0 0.0
2017-Apr-26 12:19N 05°19' W 004°01'0 0.0
2017-Apr-26 11:57N 05°19' W 004°01'0 0.0
2017-Apr-26 11:19N 05°19' W 004°01'0 0.0
2017-Apr-26 11:00N 05°19' W 004°01'0 0.0
2017-Apr-26 10:08N 05°19' W 004°01'0 0.0
2017-Apr-26 09:53N 05°19' W 004°01'0 0.0
2017-Apr-26 09:29N 05°19' W 004°01'0 0.0
2017-Apr-26 08:58N 05°19' W 004°01'1 0.9
2017-Apr-26 08:11N 05°18' W 004°02'1 5.5
2017-Apr-26 07:59N 05°17' W 004°01'5 4.9
2017-Apr-26 07:01N 05°13' W 003°59'  

Dump ship's entire track history